Airfield :
LOGIN :

Register | Disclaimer

   EN    FR    IT 

 










Legend :    VFR   Marginal VFR   IFR   Intensive IFR   Very Intensive IFR
Visi :
Ceiling :
>= 8 km
>= 3000ft
5 to 8 km
1000 to 3000 ft
1500m to 5 km
500 to 1000 ft
800 to 1500m
200 to 500 ft
< 800m
< 200 ft
Symbols :   Thunderstorms  Fog  Heavy snow  Heavy precipitations  Wind > 20 kt
SIGMETs :     Misc.  Thunderstorms  Icing  Turbulence  Mountain Waves  Volcanic Ashes







- Airport Elevation : 935 ft


EBFS - Florennes

CURRENT METAR :
  • 200825Z 22014KT 9999 FEW013 BKN017 11/08 Q1010 WHT WHT BECMG BLU

EXPIRED METARs :
  • 200755Z 22014G24KT 9999 FEW012 BKN016 11/08 Q1010 WHT WHT BECMG BLU
  • 200725Z 21011KT 9999 FEW012 SCT016 11/09 Q1009 WHT WHT BECMG BLU
  • 200655Z 22013KT 9999 FEW012 SCT016 11/09 Q1009 WHT WHT BECMG BLU
  • 200625Z 21013KT 9999 FEW012 SCT020 11/09 Q1008 WHT WHT BECMG BLU
  • 200555Z 22013KT 9999 FEW012 SCT015 11/09 Q1008 WHT WHT BECMG BLU

TAF COR TAF EBFS
Valid from the 20 at 07:00 until the 20 at 16:00 UTC


200634Z 2007/2016 22015G25KT 9999 SCT020
TEMPO 2007/2008 SCT012
BECMG 2008/2010 FEW020 SCT040
PROB30
TEMPO 2012/2014 7000 -SHRA
No reported NOTAMs for that airfield.
1 SIGMET reported for the Brussels FIR (EBBU) :
 
Severe turbulence
EBBU SIGMET 01 VALID 200700/200900 EBBR
EBBU BRUSSELS FIR SEV TURB FCST EBBU FL190/350 MOV NE 25KT WKN=



MET'MAP, your aeronautical weather chart ! - Copyright ORBIFLY December 2007 - Disclaimer

ORBIFLY MET'MAP TEAM :

Programming & Development : Alexandra Zaïnal
Concept & Development : Baudouin d'Aumeries
Co-Development & Prog : Marc-Olivier Méhu
Technical & hardware support : Manuel Goepfert

Contact : metmap@orbifly.com




SOURCES & CREDITS :

   NOAA